Time;durP1;ratioP1;P1;durP2;ratioP2;P2;SDS_P1;SDS_P2;PMS_P1;PMS_P2;Temp;Humidity;BMP_temperature;BMP_pressure;BME280_temperature;BME280_humidity;BME280_pressure;Samples;Min_cycle;Max_cycle;Signal;HPM_P1;HPM_P2
2022/03/15 00:00:52;;;;;;;0.30;0.30;;;6.90;99.90;;;;;;5018051;28;20202;-84
2022/03/15 00:03:18;;;;;;;0.10;0.10;;;6.70;99.90;;;;;;5025350;28;20563;-84
2022/03/15 00:05:44;;;;;;;1.07;0.17;;;6.50;99.90;;;;;;5023687;28;20204;-84
2022/03/15 00:08:10;;;;;;;0.10;0.10;;;6.60;99.90;;;;;;5021495;28;20194;-83
2022/03/15 00:10:35;;;;;;;0.17;0.17;;;6.70;99.90;;;;;;5025146;28;20199;-85
2022/03/15 00:13:01;;;;;;;0.90;0.60;;;6.90;99.90;;;;;;5023244;28;20688;-84
2022/03/15 00:15:27;;;;;;;1.23;0.60;;;6.80;99.90;;;;;;5023266;28;20219;-85
2022/03/15 00:17:53;;;;;;;0.20;0.20;;;6.90;99.90;;;;;;5022060;28;20236;-84
2022/03/15 00:20:22;;;;;;;0.10;0.10;;;7.00;99.90;;;;;;5022083;28;20191;-84
2022/03/15 00:22:49;;;;;;;0.10;0.10;;;7.00;99.90;;;;;;5025437;28;21331;-84
2022/03/15 00:25:18;;;;;;;1.10;0.80;;;7.10;99.90;;;;;;5025637;28;20723;-84
2022/03/15 00:27:45;;;;;;;0.63;0.20;;;7.20;99.90;;;;;;5025779;28;20232;-84
2022/03/15 00:30:12;;;;;;;0.30;0.27;;;7.20;99.90;;;;;;5022703;28;20698;-84
2022/03/15 00:32:37;;;;;;;0.30;0.30;;;6.90;99.90;;;;;;5024337;28;20203;-85
2022/03/15 00:35:08;;;;;;;0.10;0.10;;;6.90;99.90;;;;;;5022211;28;20557;-83
2022/03/15 00:37:36;;;;;;;0.10;0.10;;;7.00;99.90;;;;;;5023437;28;20258;-84
2022/03/15 00:40:02;;;;;;;0.27;0.20;;;7.10;99.90;;;;;;5023183;28;20279;-84
2022/03/15 00:42:28;;;;;;;0.20;0.20;;;7.00;99.90;;;;;;5024723;28;20202;-85
2022/03/15 00:44:53;;;;;;;0.10;0.10;;;6.80;99.90;;;;;;5020967;28;20186;-85
2022/03/15 00:47:19;;;;;;;0.10;0.10;;;6.70;99.90;;;;;;5024597;28;20194;-84
2022/03/15 00:49:44;;;;;;;0.10;0.10;;;6.60;99.90;;;;;;5024510;28;20690;-84
2022/03/15 00:52:10;;;;;;;0.23;0.23;;;6.60;99.90;;;;;;5021056;28;20701;-85
2022/03/15 00:54:35;;;;;;;0.10;0.10;;;6.40;99.90;;;;;;5023200;28;20198;-85
2022/03/15 00:57:01;;;;;;;0.87;0.20;;;6.40;99.90;;;;;;5022471;28;20288;-84
2022/03/15 00:59:26;;;;;;;0.30;0.30;;;6.50;99.90;;;;;;5022005;28;21176;-85
2022/03/15 01:01:52;;;;;;;0.13;0.13;;;6.50;99.90;;;;;;5022263;28;20212;-84
2022/03/15 01:04:18;;;;;;;0.10;0.10;;;6.40;99.90;;;;;;5025462;28;20222;-85
2022/03/15 01:06:44;;;;;;;0.40;0.40;;;6.30;99.90;;;;;;5020327;28;20211;-85
2022/03/15 01:09:10;;;;;;;0.10;0.10;;;6.20;99.90;;;;;;5022966;28;20654;-84
2022/03/15 01:11:36;;;;;;;0.40;0.40;;;6.30;99.90;;;;;;5021633;28;20207;-85
2022/03/15 01:14:02;;;;;;;0.43;0.43;;;6.30;99.90;;;;;;5020131;28;20189;-83
2022/03/15 01:16:28;;;;;;;0.00;0.00;;;6.30;99.90;;;;;;5022408;28;20201;-84
2022/03/15 01:18:53;;;;;;;0.10;0.10;;;6.40;99.90;;;;;;5020774;28;20334;-85
2022/03/15 01:21:19;;;;;;;0.20;0.20;;;6.50;99.90;;;;;;5021420;28;20639;-85
2022/03/15 01:23:45;;;;;;;0.10;0.10;;;6.70;99.90;;;;;;5022033;28;20189;-84
2022/03/15 01:26:11;;;;;;;0.10;0.10;;;6.80;99.90;;;;;;5022464;28;20184;-85
2022/03/15 01:28:37;;;;;;;0.10;0.10;;;6.90;99.90;;;;;;5025052;28;20599;-84
2022/03/15 01:31:02;;;;;;;0.10;0.10;;;7.00;99.90;;;;;;5016136;28;20225;-85
2022/03/15 01:33:28;;;;;;;0.23;0.20;;;6.90;99.90;;;;;;5023270;28;20248;-84
2022/03/15 01:35:54;;;;;;;0.33;0.33;;;6.90;99.90;;;;;;5025028;28;20229;-84
2022/03/15 01:38:20;;;;;;;0.10;0.10;;;7.10;99.90;;;;;;5024581;28;20176;-84
2022/03/15 01:40:46;;;;;;;0.00;0.00;;;7.10;99.90;;;;;;5023031;28;20687;-84
2022/03/15 01:43:12;;;;;;;1.50;0.60;;;7.20;99.90;;;;;;5024690;28;20260;-84
2022/03/15 01:45:39;;;;;;;0.00;0.00;;;7.20;99.90;;;;;;5022115;28;20677;-85
2022/03/15 01:48:07;;;;;;;0.10;0.10;;;7.20;99.90;;;;;;5022937;28;20195;-84
2022/03/15 01:50:34;;;;;;;0.20;0.20;;;7.20;99.90;;;;;;5022769;28;20272;-84
2022/03/15 01:52:59;;;;;;;0.17;0.10;;;7.20;99.90;;;;;;5022300;28;20286;-84
2022/03/15 01:55:25;;;;;;;0.10;0.10;;;7.20;99.90;;;;;;5024244;28;20616;-84
2022/03/15 01:57:51;;;;;;;0.10;0.10;;;7.20;99.90;;;;;;5022302;28;20637;-84
2022/03/15 02:00:18;;;;;;;0.57;0.57;;;7.20;99.90;;;;;;5024136;28;20199;-85
2022/03/15 02:02:44;;;;;;;0.07;0.07;;;6.90;99.90;;;;;;5023198;28;20208;-84
2022/03/15 02:05:10;;;;;;;1.07;0.77;;;7.00;99.90;;;;;;5022164;28;20668;-84
2022/03/15 02:07:36;;;;;;;0.10;0.10;;;7.00;99.90;;;;;;5019245;28;20190;-84
2022/03/15 02:10:03;;;;;;;0.03;0.03;;;7.20;99.90;;;;;;5025124;28;20215;-84
2022/03/15 02:12:29;;;;;;;0.20;0.20;;;7.20;99.90;;;;;;5019765;28;20216;-84
2022/03/15 02:14:57;;;;;;;0.47;0.47;;;7.30;99.90;;;;;;5024953;28;20227;-84
2022/03/15 02:17:22;;;;;;;0.10;0.10;;;7.40;99.90;;;;;;5026735;28;20184;-85
2022/03/15 02:19:49;;;;;;;0.10;0.10;;;7.40;99.90;;;;;;5027704;28;20230;-84
2022/03/15 02:22:14;;;;;;;0.30;0.30;;;7.20;99.90;;;;;;5028822;28;20264;-84
2022/03/15 02:24:42;;;;;;;1.23;0.20;;;7.00;99.90;;;;;;5027367;28;20552;-85
2022/03/15 02:27:07;;;;;;;0.20;0.20;;;7.00;99.90;;;;;;5025952;28;20190;-84
2022/03/15 02:29:33;;;;;;;0.57;0.57;;;7.10;99.90;;;;;;5026195;28;20212;-84
2022/03/15 02:31:59;;;;;;;0.10;0.10;;;7.10;99.90;;;;;;5027404;28;20212;-84
2022/03/15 02:34:25;;;;;;;0.10;0.10;;;7.30;99.90;;;;;;5028609;28;20192;-84
2022/03/15 02:36:53;;;;;;;0.10;0.10;;;7.30;99.90;;;;;;5026055;28;20639;-85
2022/03/15 02:39:18;;;;;;;0.10;0.10;;;7.30;99.90;;;;;;5027524;28;20195;-85
2022/03/15 02:41:44;;;;;;;1.00;0.30;;;7.20;99.90;;;;;;5026367;28;20220;-84
2022/03/15 02:44:11;;;;;;;0.20;0.20;;;7.00;99.90;;;;;;5023053;28;20188;-84
2022/03/15 02:46:39;;;;;;;2.23;0.40;;;6.90;99.90;;;;;;5025018;28;20247;-84
2022/03/15 02:49:06;;;;;;;0.30;0.30;;;6.60;99.90;;;;;;5024236;28;20656;-85
2022/03/15 02:51:31;;;;;;;0.20;0.20;;;6.50;99.90;;;;;;5028442;28;20211;-84
2022/03/15 02:53:58;;;;;;;0.10;0.10;;;6.30;99.90;;;;;;5025129;28;20192;-85
2022/03/15 02:56:24;;;;;;;0.20;0.20;;;6.30;99.90;;;;;;5026685;28;20191;-84
2022/03/15 02:58:49;;;;;;;0.10;0.10;;;6.30;99.90;;;;;;5023537;28;20203;-85
2022/03/15 03:01:15;;;;;;;0.10;0.10;;;6.40;99.90;;;;;;5027671;28;20263;-84
2022/03/15 03:03:41;;;;;;;0.43;0.43;;;6.50;99.90;;;;;;5023284;28;20198;-84
2022/03/15 03:06:07;;;;;;;0.20;0.20;;;6.60;99.90;;;;;;5025934;28;20201;-85
2022/03/15 03:08:34;;;;;;;0.00;0.00;;;6.60;99.90;;;;;;5025862;28;20204;-84
2022/03/15 03:11:00;;;;;;;0.10;0.10;;;6.80;99.90;;;;;;5026132;28;20762;-84
2022/03/15 03:13:26;;;;;;;0.10;0.10;;;6.90;99.90;;;;;;5027030;28;20303;-84
2022/03/15 03:15:57;;;;;;;0.10;0.10;;;7.00;99.90;;;;;;5042310;28;20190;-85
2022/03/15 03:18:29;;;;;;;0.10;0.10;;;7.10;99.90;;;;;;5026160;28;20555;-85
2022/03/15 03:20:55;;;;;;;0.10;0.10;;;7.10;99.90;;;;;;5042888;28;20190;-84
2022/03/15 03:23:21;;;;;;;0.10;0.10;;;7.10;99.90;;;;;;5021134;28;20268;-84
2022/03/15 03:25:47;;;;;;;0.17;0.17;;;7.10;99.90;;;;;;5023985;28;20613;-84
2022/03/15 03:28:13;;;;;;;0.13;0.13;;;7.10;99.90;;;;;;5025211;28;20271;-84
2022/03/15 03:30:41;;;;;;;0.17;0.13;;;7.20;99.90;;;;;;5021819;28;20200;-84
2022/03/15 03:33:06;;;;;;;0.10;0.10;;;7.30;99.90;;;;;;5023908;28;20207;-85
2022/03/15 03:35:32;;;;;;;0.20;0.20;;;7.40;99.90;;;;;;5026228;28;20191;-84
2022/03/15 03:37:57;;;;;;;0.10;0.10;;;7.40;99.90;;;;;;5022536;28;20181;-85
2022/03/15 03:40:23;;;;;;;0.73;0.20;;;7.40;99.90;;;;;;5020836;28;20191;-85
2022/03/15 03:42:49;;;;;;;0.00;0.00;;;7.40;99.90;;;;;;5023497;28;20208;-84
2022/03/15 03:45:14;;;;;;;0.10;0.10;;;7.40;99.90;;;;;;5026119;28;20197;-84
2022/03/15 03:47:40;;;;;;;0.23;0.23;;;7.40;99.90;;;;;;5022886;28;20188;-84
2022/03/15 03:50:09;;;;;;;0.10;0.10;;;7.40;99.90;;;;;;5021994;28;20214;-85
2022/03/15 03:52:35;;;;;;;0.10;0.10;;;7.20;99.90;;;;;;5021842;28;20289;-85
2022/03/15 03:55:01;;;;;;;0.60;0.40;;;7.20;99.90;;;;;;5021415;28;20275;-84
2022/03/15 03:57:26;;;;;;;1.40;0.40;;;7.20;99.90;;;;;;5022009;28;20216;-85
2022/03/15 03:59:52;;;;;;;0.27;0.27;;;7.20;99.90;;;;;;5024859;28;20244;-84
2022/03/15 04:02:17;;;;;;;0.20;0.20;;;7.20;99.90;;;;;;5026979;28;20586;-85
2022/03/15 04:04:43;;;;;;;0.20;0.20;;;7.30;99.90;;;;;;5026735;28;20276;-84
2022/03/15 04:07:11;;;;;;;0.20;0.20;;;7.30;99.90;;;;;;5015836;28;20185;-84
2022/03/15 04:09:37;;;;;;;0.60;0.60;;;7.20;99.90;;;;;;5020859;28;20229;-84
2022/03/15 04:12:05;;;;;;;0.50;0.43;;;7.30;99.90;;;;;;5027087;28;20210;-84
2022/03/15 04:14:30;;;;;;;0.30;0.30;;;7.20;99.90;;;;;;5027038;28;20176;-83
2022/03/15 04:16:56;;;;;;;0.23;0.20;;;7.20;99.90;;;;;;5022282;28;20649;-84
2022/03/15 04:19:21;;;;;;;0.50;0.33;;;7.10;99.90;;;;;;5025227;28;20189;-84
2022/03/15 04:21:47;;;;;;;0.10;0.10;;;7.10;99.90;;;;;;5026760;28;20194;-84
2022/03/15 04:24:14;;;;;;;0.10;0.10;;;7.00;99.90;;;;;;5022509;28;20209;-84
2022/03/15 04:26:42;;;;;;;0.30;0.30;;;7.00;99.90;;;;;;5024284;28;20199;-83
2022/03/15 04:29:07;;;;;;;0.60;0.60;;;7.00;99.90;;;;;;5026141;28;20262;-84
2022/03/15 04:31:33;;;;;;;0.20;0.20;;;7.00;99.90;;;;;;5024498;28;20293;-84
2022/03/15 04:33:58;;;;;;;1.10;0.60;;;7.00;99.90;;;;;;5025361;28;20178;-84
2022/03/15 04:36:24;;;;;;;0.30;0.30;;;7.00;99.90;;;;;;5025760;28;20212;-84
2022/03/15 04:38:49;;;;;;;0.70;0.70;;;6.90;99.90;;;;;;5024867;28;20186;-84
2022/03/15 04:41:15;;;;;;;0.67;0.50;;;7.00;99.90;;;;;;5024959;28;20217;-84
2022/03/15 04:43:40;;;;;;;0.20;0.20;;;7.10;99.90;;;;;;5019420;28;20282;-83
2022/03/15 04:46:07;;;;;;;0.27;0.27;;;7.20;99.90;;;;;;5024615;28;20179;-84
2022/03/15 04:48:33;;;;;;;0.30;0.30;;;7.20;99.90;;;;;;5024803;28;20209;-84
2022/03/15 04:50:59;;;;;;;0.20;0.20;;;6.90;99.90;;;;;;5023021;28;20262;-84
2022/03/15 04:53:24;;;;;;;0.10;0.10;;;6.70;99.90;;;;;;5021974;28;20188;-83
2022/03/15 04:55:50;;;;;;;0.77;0.33;;;6.80;99.90;;;;;;5023394;28;20180;-84
2022/03/15 04:58:16;;;;;;;0.90;0.30;;;6.80;99.90;;;;;;5022871;28;20203;-84
2022/03/15 05:00:41;;;;;;;0.20;0.20;;;6.90;99.90;;;;;;5022409;28;20728;-84
2022/03/15 05:03:07;;;;;;;0.60;0.60;;;6.80;99.90;;;;;;5022039;28;20214;-84
2022/03/15 05:05:32;;;;;;;0.40;0.40;;;6.60;99.90;;;;;;5019704;28;20261;-84
2022/03/15 05:07:58;;;;;;;0.40;0.40;;;6.80;99.90;;;;;;5022179;28;20179;-84
2022/03/15 05:13:08;;;;;;;0.10;0.10;;;7.00;99.90;;;;;;5024441;28;20749;-83
2022/03/15 05:15:34;;;;;;;0.07;0.07;;;7.10;99.90;;;;;;5021479;28;20271;-84
2022/03/15 05:18:03;;;;;;;0.10;0.10;;;7.20;99.90;;;;;;5024340;28;20276;-83
2022/03/15 05:20:31;;;;;;;0.10;0.10;;;7.30;99.90;;;;;;5022136;28;20198;-84
2022/03/15 05:22:56;;;;;;;0.30;0.30;;;7.30;99.90;;;;;;5022475;28;20314;-84
2022/03/15 05:25:22;;;;;;;0.40;0.20;;;7.30;99.90;;;;;;5022291;28;20640;-84
2022/03/15 05:27:48;;;;;;;0.10;0.10;;;7.30;99.90;;;;;;5026101;28;20191;-84
2022/03/15 05:30:14;;;;;;;0.30;0.30;;;7.30;99.90;;;;;;5019464;28;20220;-83
2022/03/15 05:32:40;;;;;;;1.03;1.03;;;7.30;99.90;;;;;;5020811;28;20230;-83
2022/03/15 05:35:06;;;;;;;0.20;0.20;;;7.30;99.90;;;;;;5024438;28;20216;-83
2022/03/15 05:37:32;;;;;;;0.10;0.10;;;7.20;99.90;;;;;;5022086;28;20225;-83
2022/03/15 05:39:58;;;;;;;0.10;0.10;;;7.00;99.90;;;;;;5022264;28;20195;-83
2022/03/15 05:42:24;;;;;;;0.33;0.20;;;6.70;99.90;;;;;;5018329;28;20815;-84
2022/03/15 05:44:49;;;;;;;0.10;0.10;;;6.50;99.90;;;;;;5025222;28;20199;-83
2022/03/15 05:47:15;;;;;;;1.23;0.30;;;6.40;99.90;;;;;;5018901;28;20180;-84
2022/03/15 05:49:40;;;;;;;0.10;0.10;;;6.40;99.90;;;;;;5016382;28;20234;-85
2022/03/15 05:52:07;;;;;;;0.00;0.00;;;6.40;99.90;;;;;;5018247;28;20202;-85
2022/03/15 05:54:34;;;;;;;0.10;0.10;;;6.40;99.90;;;;;;5019476;28;20779;-85
2022/03/15 05:56:59;;;;;;;0.10;0.10;;;6.40;99.90;;;;;;5024701;28;20282;-85
2022/03/15 05:59:25;;;;;;;0.37;0.37;;;6.50;99.90;;;;;;5026108;28;20609;-84
2022/03/15 06:01:50;;;;;;;0.20;0.20;;;6.50;99.90;;;;;;5029630;28;20260;-84
2022/03/15 06:04:17;;;;;;;0.77;0.77;;;6.70;99.90;;;;;;5021173;28;20187;-85
2022/03/15 06:06:43;;;;;;;0.00;0.00;;;6.80;99.90;;;;;;5022909;28;20659;-84
2022/03/15 06:09:08;;;;;;;0.10;0.10;;;6.80;99.90;;;;;;5030176;28;20191;-85
2022/03/15 06:11:34;;;;;;;0.40;0.40;;;6.80;99.90;;;;;;5027252;28;20235;-83
2022/03/15 06:14:00;;;;;;;0.10;0.10;;;6.70;99.90;;;;;;5022993;28;20212;-84
2022/03/15 06:16:26;;;;;;;1.07;0.33;;;6.80;99.90;;;;;;5023543;28;20595;-84
2022/03/15 06:18:51;;;;;;;0.10;0.10;;;6.80;99.90;;;;;;5024700;28;20733;-82
2022/03/15 06:21:18;;;;;;;0.33;0.20;;;6.90;99.90;;;;;;5042061;28;20207;-82
2022/03/15 06:23:43;;;;;;;0.20;0.20;;;7.00;99.90;;;;;;5022190;28;20221;-82
2022/03/15 06:26:10;;;;;;;0.10;0.10;;;7.10;99.90;;;;;;5025137;28;20226;-82
2022/03/15 06:28:36;;;;;;;0.30;0.30;;;7.10;99.90;;;;;;5021051;28;20192;-82
2022/03/15 06:31:02;;;;;;;0.40;0.40;;;7.20;99.90;;;;;;5022084;28;20236;-82
2022/03/15 06:33:28;;;;;;;0.20;0.20;;;7.20;99.90;;;;;;5020307;28;20183;-82
2022/03/15 06:35:54;;;;;;;0.20;0.20;;;7.10;99.90;;;;;;5024788;28;20191;-82
2022/03/15 06:38:20;;;;;;;0.20;0.20;;;7.20;99.90;;;;;;5025267;28;20208;-82
2022/03/15 06:40:46;;;;;;;0.10;0.10;;;7.40;99.90;;;;;;5025622;28;20579;-87
2022/03/15 06:43:13;;;;;;;0.17;0.17;;;7.60;99.90;;;;;;5023235;28;20197;-83
2022/03/15 06:45:42;;;;;;;0.10;0.10;;;7.80;99.90;;;;;;5020228;28;20187;-82
2022/03/15 06:48:08;;;;;;;0.47;0.27;;;8.00;99.90;;;;;;5022158;28;20200;-82
2022/03/15 06:50:35;;;;;;;0.10;0.10;;;8.10;99.90;;;;;;5019922;28;20286;-83
2022/03/15 06:53:01;;;;;;;0.43;0.43;;;8.20;99.90;;;;;;5041130;28;20256;-83
2022/03/15 06:55:27;;;;;;;0.20;0.20;;;8.10;99.90;;;;;;5024616;28;20713;-83
2022/03/15 06:57:53;;;;;;;0.10;0.10;;;8.10;99.90;;;;;;5022219;28;20293;-82
2022/03/15 07:00:19;;;;;;;0.03;0.03;;;8.20;99.90;;;;;;5025176;28;20189;-82
2022/03/15 07:02:44;;;;;;;0.50;0.50;;;8.30;99.90;;;;;;5025193;28;21196;-84
2022/03/15 07:05:10;;;;;;;0.20;0.20;;;8.40;99.90;;;;;;5027802;28;20249;-83
2022/03/15 07:07:37;;;;;;;0.20;0.20;;;8.50;99.90;;;;;;5026736;28;20193;-83
2022/03/15 07:10:05;;;;;;;0.97;0.70;;;8.60;99.90;;;;;;5027065;28;20263;-82
2022/03/15 07:12:32;;;;;;;0.20;0.20;;;8.70;99.90;;;;;;5026800;28;20206;-83
2022/03/15 07:14:59;;;;;;;0.20;0.20;;;8.80;99.90;;;;;;5027374;28;20239;-82
2022/03/15 07:17:25;;;;;;;0.50;0.20;;;8.90;99.90;;;;;;5026931;28;20193;-83
2022/03/15 07:19:50;;;;;;;0.10;0.10;;;9.00;99.90;;;;;;5027663;28;20209;-84
2022/03/15 07:22:16;;;;;;;0.63;0.20;;;9.10;99.90;;;;;;5030491;28;20202;-84
2022/03/15 07:24:41;;;;;;;0.40;0.27;;;9.20;99.90;;;;;;5028502;28;20185;-83
2022/03/15 07:27:07;;;;;;;0.33;0.33;;;9.30;99.90;;;;;;5027562;28;20307;-84
2022/03/15 07:29:32;;;;;;;0.40;0.40;;;9.40;99.90;;;;;;5026162;28;20241;-83
2022/03/15 07:31:58;;;;;;;1.23;0.43;;;9.50;99.90;;;;;;5022431;28;20198;-84
2022/03/15 07:34:23;;;;;;;0.10;0.10;;;9.50;99.90;;;;;;5026363;28;20204;-83
2022/03/15 07:36:49;;;;;;;0.37;0.30;;;9.60;99.90;;;;;;5030778;28;20571;-84
2022/03/15 07:39:15;;;;;;;0.27;0.13;;;9.70;99.90;;;;;;5026109;28;20186;-84
2022/03/15 07:41:40;;;;;;;0.20;0.20;;;9.70;99.90;;;;;;5025286;28;20575;-83
2022/03/15 07:44:07;;;;;;;0.30;0.30;;;9.40;99.90;;;;;;5028591;28;20332;-84
2022/03/15 07:46:33;;;;;;;0.57;0.57;;;9.00;99.90;;;;;;5027794;28;20278;-84
2022/03/15 07:48:59;;;;;;;0.30;0.30;;;8.90;99.90;;;;;;5027312;28;20277;-84
2022/03/15 07:51:25;;;;;;;0.30;0.30;;;8.80;99.90;;;;;;5023212;28;21090;-84
2022/03/15 07:53:51;;;;;;;0.87;0.50;;;8.80;99.90;;;;;;5027590;28;20226;-83
2022/03/15 07:56:17;;;;;;;0.33;0.33;;;8.80;99.90;;;;;;5027136;28;20204;-84
2022/03/15 07:58:43;;;;;;;0.10;0.10;;;8.90;99.90;;;;;;5025633;28;20178;-83
2022/03/15 08:01:08;;;;;;;0.10;0.10;;;8.90;99.90;;;;;;5027060;28;20213;-83
2022/03/15 08:03:34;;;;;;;0.20;0.20;;;8.70;99.90;;;;;;5029753;28;20192;-83
2022/03/15 08:06:00;;;;;;;0.70;0.70;;;8.70;99.90;;;;;;5025725;28;20274;-83
2022/03/15 08:08:25;;;;;;;0.33;0.33;;;8.70;99.90;;;;;;5022434;28;20240;-84
2022/03/15 08:10:51;;;;;;;0.63;0.17;;;8.80;99.90;;;;;;5027638;28;20698;-83
2022/03/15 08:13:17;;;;;;;0.63;0.60;;;8.90;99.90;;;;;;5026279;28;20186;-83
2022/03/15 08:15:42;;;;;;;0.30;0.30;;;9.00;99.90;;;;;;5020608;28;20184;-83
2022/03/15 08:18:08;;;;;;;0.73;0.70;;;9.10;99.90;;;;;;5022633;28;20210;-84
2022/03/15 08:20:33;;;;;;;0.17;0.17;;;9.30;99.90;;;;;;5023047;28;20202;-82
2022/03/15 08:23:00;;;;;;;0.10;0.10;;;9.20;99.90;;;;;;5021225;28;20213;-82
2022/03/15 08:25:26;;;;;;;0.43;0.43;;;9.40;99.90;;;;;;5020390;28;20193;-83
2022/03/15 08:27:51;;;;;;;0.10;0.10;;;9.40;99.90;;;;;;5025966;28;20191;-82
2022/03/15 08:30:17;;;;;;;0.20;0.20;;;9.50;99.90;;;;;;5024317;28;20224;-82
2022/03/15 08:32:43;;;;;;;0.40;0.40;;;9.70;99.90;;;;;;5022553;28;21130;-82
2022/03/15 08:35:09;;;;;;;0.30;0.30;;;9.60;99.90;;;;;;5024129;28;20715;-81
2022/03/15 08:37:35;;;;;;;0.87;0.47;;;9.40;99.90;;;;;;5021333;28;20602;-82
2022/03/15 08:40:01;;;;;;;0.30;0.30;;;9.20;99.90;;;;;;5021247;28;20663;-82
2022/03/15 08:42:27;;;;;;;0.20;0.20;;;9.10;99.90;;;;;;5025477;28;20216;-82
2022/03/15 08:44:52;;;;;;;0.23;0.23;;;9.50;99.90;;;;;;5024455;28;20190;-82
2022/03/15 08:47:18;;;;;;;0.30;0.30;;;9.40;99.90;;;;;;5023790;28;20266;-82
2022/03/15 08:49:44;;;;;;;0.40;0.40;;;9.50;99.90;;;;;;5018599;28;20636;-82
2022/03/15 08:52:11;;;;;;;0.30;0.30;;;9.40;99.90;;;;;;5024235;28;20213;-82
2022/03/15 08:54:37;;;;;;;0.13;0.13;;;9.40;99.90;;;;;;5023155;28;20614;-82
2022/03/15 08:57:04;;;;;;;1.80;1.07;;;9.60;99.90;;;;;;5021118;28;20190;-81
2022/03/15 08:59:30;;;;;;;0.10;0.10;;;9.70;99.90;;;;;;5023773;28;20188;-82
2022/03/15 09:01:56;;;;;;;1.10;0.27;;;9.80;99.90;;;;;;5022141;28;20583;-82
2022/03/15 09:04:22;;;;;;;0.70;0.70;;;9.70;99.90;;;;;;5019954;28;20273;-82
2022/03/15 09:06:48;;;;;;;7.37;0.57;;;9.80;99.90;;;;;;5022585;28;20195;-83
2022/03/15 09:09:18;;;;;;;2.97;0.33;;;9.90;99.90;;;;;;5024798;28;20186;-82
2022/03/15 09:11:46;;;;;;;0.60;0.20;;;9.80;99.90;;;;;;5023881;28;20208;-82
2022/03/15 09:14:14;;;;;;;0.17;0.17;;;9.80;99.90;;;;;;5024264;28;20211;-82
2022/03/15 09:16:40;;;;;;;0.23;0.23;;;10.10;99.90;;;;;;5021272;28;20191;-83
2022/03/15 09:19:06;;;;;;;0.20;0.20;;;10.00;99.90;;;;;;5023836;28;20193;-82
2022/03/15 09:21:32;;;;;;;0.20;0.20;;;10.20;99.90;;;;;;5022445;28;20206;-83
2022/03/15 09:23:58;;;;;;;0.30;0.30;;;10.20;99.90;;;;;;5021633;28;20661;-83
2022/03/15 09:26:24;;;;;;;0.23;0.23;;;10.00;99.90;;;;;;5022013;28;20218;-83
2022/03/15 09:28:51;;;;;;;0.30;0.30;;;10.10;99.90;;;;;;5019648;28;20195;-83
2022/03/15 09:31:17;;;;;;;0.40;0.40;;;10.00;99.90;;;;;;5020566;28;20240;-83
2022/03/15 09:33:43;;;;;;;0.40;0.40;;;9.80;99.90;;;;;;5024499;28;20265;-82
2022/03/15 09:36:09;;;;;;;0.20;0.20;;;9.70;99.90;;;;;;5021904;28;20854;-82
2022/03/15 09:38:35;;;;;;;0.30;0.10;;;9.80;99.90;;;;;;5020570;28;20672;-82
2022/03/15 09:41:05;;;;;;;0.63;0.63;;;10.00;99.90;;;;;;5021989;28;20226;-82
2022/03/15 09:43:36;;;;;;;0.33;0.33;;;10.00;99.90;;;;;;5022687;28;20584;-82
2022/03/15 09:46:04;;;;;;;0.20;0.20;;;9.70;99.90;;;;;;5020896;28;21266;-84
2022/03/15 09:48:31;;;;;;;0.60;0.60;;;9.90;99.90;;;;;;5020745;28;20190;-84
2022/03/15 09:50:57;;;;;;;0.27;0.27;;;10.00;99.90;;;;;;5022042;28;20210;-83
2022/03/15 09:53:22;;;;;;;0.77;0.47;;;9.90;99.90;;;;;;5021159;28;20189;-84
2022/03/15 09:55:48;;;;;;;0.60;0.27;;;9.90;99.90;;;;;;5016343;28;20190;-84
2022/03/15 09:58:20;;;;;;;0.30;0.30;;;10.00;99.90;;;;;;5019038;28;20232;-83
2022/03/15 10:00:55;;;;;;;0.50;0.50;;;9.70;99.90;;;;;;5021890;28;20201;-82
2022/03/15 10:03:21;;;;;;;0.50;0.50;;;9.60;99.90;;;;;;5021389;28;20193;-82
2022/03/15 10:05:49;;;;;;;0.10;0.10;;;9.60;99.90;;;;;;5022511;28;20262;-82
2022/03/15 10:08:17;;;;;;;0.30;0.30;;;9.50;99.90;;;;;;5018678;28;20556;-82
2022/03/15 10:10:43;;;;;;;2.43;0.90;;;9.70;99.90;;;;;;5020898;28;20198;-81
2022/03/15 10:13:09;;;;;;;0.77;0.77;;;9.50;99.90;;;;;;5023579;28;20206;-82
2022/03/15 10:15:35;;;;;;;0.20;0.20;;;9.60;99.90;;;;;;5021063;28;20644;-82
2022/03/15 10:18:04;;;;;;;0.30;0.30;;;9.50;99.90;;;;;;5025559;28;20198;-82
2022/03/15 10:20:38;;;;;;;0.60;0.33;;;9.30;99.90;;;;;;5015439;28;20355;-82
2022/03/15 10:23:04;;;;;;;0.20;0.20;;;9.30;99.90;;;;;;5025503;28;20213;-82
2022/03/15 10:25:34;;;;;;;0.27;0.27;;;9.20;99.90;;;;;;5017581;28;20247;-82
2022/03/15 10:28:03;;;;;;;0.43;0.33;;;9.30;99.90;;;;;;5026319;28;20304;-82
2022/03/15 10:30:30;;;;;;;0.53;0.20;;;9.30;99.90;;;;;;5023078;28;20204;-82
2022/03/15 10:32:57;;;;;;;4.43;0.27;;;9.50;99.90;;;;;;5027385;28;20329;-82
2022/03/15 10:35:29;;;;;;;2.07;0.37;;;9.60;99.90;;;;;;5027042;28;20252;-82
2022/03/15 10:37:55;;;;;;;2.00;0.33;;;9.70;99.90;;;;;;5046532;28;20196;-82
2022/03/15 10:40:42;;;;;;;0.10;0.10;;;9.60;99.90;;;;;;5029367;28;20191;-81
2022/03/15 10:43:14;;;;;;;0.93;0.63;;;9.60;99.90;;;;;;5030247;28;20225;-81
2022/03/15 10:45:48;;;;;;;0.30;0.23;;;9.90;99.90;;;;;;5026166;28;20906;-82
2022/03/15 10:48:15;;;;;;;0.30;0.30;;;10.10;99.90;;;;;;5029266;28;20234;-82
2022/03/15 10:50:53;;;;;;;0.20;0.20;;;10.20;99.90;;;;;;5029582;28;20233;-82
2022/03/15 10:53:22;;;;;;;0.20;0.20;;;10.20;99.90;;;;;;5028848;28;21273;-82
2022/03/15 10:55:47;;;;;;;0.20;0.20;;;10.30;99.90;;;;;;5028820;28;20188;-82
2022/03/15 10:58:21;;;;;;;0.20;0.20;;;10.30;99.90;;;;;;5024707;28;20190;-84
2022/03/15 11:00:50;;;;;;;0.57;0.40;;;10.30;99.90;;;;;;5026814;28;20195;-84
2022/03/15 11:03:23;;;;;;;1.47;0.70;;;10.20;99.90;;;;;;5025578;28;20220;-84
2022/03/15 11:05:50;;;;;;;0.40;0.27;;;10.10;99.90;;;;;;5025212;28;20194;-84
2022/03/15 11:08:18;;;;;;;0.20;0.10;;;10.10;99.90;;;;;;5023972;28;20194;-84
2022/03/15 11:10:50;;;;;;;0.70;0.67;;;10.10;99.90;;;;;;5017878;28;21257;-84
2022/03/15 11:13:17;;;;;;;2.33;0.40;;;9.70;99.90;;;;;;5019601;28;20190;-84
2022/03/15 11:15:49;;;;;;;0.37;0.37;;;9.60;99.90;;;;;;5021648;28;20182;-84
2022/03/15 11:18:16;;;;;;;0.60;0.57;;;9.50;99.90;;;;;;5021897;28;20214;-84
2022/03/15 11:20:44;;;;;;;0.97;0.87;;;9.10;99.90;;;;;;5022696;28;20214;-84
2022/03/15 11:23:11;;;;;;;0.30;0.30;;;8.90;99.90;;;;;;5024591;28;20219;-84
2022/03/15 11:25:46;;;;;;;3.50;1.20;;;8.70;99.90;;;;;;5025578;28;20183;-83
2022/03/15 11:28:22;;;;;;;0.83;0.80;;;8.60;99.90;;;;;;5022816;28;20200;-84
2022/03/15 11:30:51;;;;;;;0.40;0.40;;;8.40;99.90;;;;;;5022379;28;20210;-84
2022/03/15 11:33:17;;;;;;;0.70;0.20;;;8.30;99.90;;;;;;5023301;28;20188;-83
2022/03/15 11:35:43;;;;;;;0.37;0.37;;;8.30;99.90;;;;;;5016923;28;20185;-84
2022/03/15 11:38:12;;;;;;;0.17;0.17;;;8.30;99.90;;;;;;5024233;28;20192;-84
2022/03/15 11:40:39;;;;;;;1.53;0.60;;;8.30;99.90;;;;;;5026559;28;20178;-84
2022/03/15 11:43:35;;;;;;;0.17;0.17;;;8.30;99.90;;;;;;5024969;28;20210;-84
2022/03/15 11:46:10;;;;;;;0.57;0.57;;;8.20;99.90;;;;;;5024275;28;20186;-84
2022/03/15 11:48:52;;;;;;;0.57;0.37;;;8.20;99.90;;;;;;5025005;28;20529;-84
2022/03/15 11:51:47;;;;;;;0.30;0.30;;;8.20;99.90;;;;;;5026036;28;20216;-84
2022/03/15 11:54:34;;;;;;;0.33;0.33;;;8.20;99.90;;;;;;5024519;28;20261;-84
2022/03/15 11:57:05;;;;;;;0.47;0.47;;;8.10;99.90;;;;;;5022223;28;20656;-84
2022/03/15 11:59:50;;;;;;;1.40;0.63;;;8.10;99.90;;;;;;5025360;28;20176;-84
2022/03/15 12:02:38;;;;;;;0.37;0.37;;;8.10;99.90;;;;;;5025605;28;20288;-84
2022/03/15 12:05:17;;;;;;;0.40;0.40;;;8.10;99.90;;;;;;5026351;28;20196;-84
2022/03/15 12:07:47;;;;;;;0.30;0.30;;;8.10;99.90;;;;;;5023699;28;20204;-84
2022/03/15 12:10:24;;;;;;;0.47;0.47;;;8.10;99.90;;;;;;5018241;28;20301;-84
2022/03/15 12:13:02;;;;;;;0.20;0.20;;;7.90;99.90;;;;;;5024516;28;20205;-84
2022/03/15 12:15:39;;;;;;;1.60;0.80;;;8.00;99.90;;;;;;5023191;28;20182;-84
2022/03/15 12:21:02;;;;;;;0.60;0.50;;;7.80;99.90;;;;;;5024138;28;20194;-82
2022/03/15 12:23:38;;;;;;;0.23;0.23;;;7.60;99.90;;;;;;5026282;28;20177;-82
2022/03/15 12:26:04;;;;;;;0.50;0.50;;;7.50;99.90;;;;;;5025896;28;20191;-82
2022/03/15 12:28:32;;;;;;;1.10;0.60;;;7.40;99.90;;;;;;5027944;28;20721;-81
2022/03/15 12:31:09;;;;;;;2.17;0.93;;;7.40;99.90;;;;;;5025169;28;20280;-81
2022/03/15 12:33:35;;;;;;;0.17;0.17;;;7.40;99.90;;;;;;5024292;28;20188;-82
2022/03/15 12:36:03;;;;;;;0.50;0.50;;;7.30;99.90;;;;;;5024687;28;20662;-82
2022/03/15 12:38:37;;;;;;;0.53;0.40;;;7.30;99.90;;;;;;5025872;28;20603;-81
2022/03/15 12:41:04;;;;;;;0.27;0.27;;;7.40;99.90;;;;;;5028094;28;20229;-82
2022/03/15 12:43:31;;;;;;;0.53;0.53;;;7.30;99.90;;;;;;5028939;28;20216;-82
2022/03/15 12:46:03;;;;;;;0.30;0.30;;;7.40;99.90;;;;;;5025121;28;20183;-82
2022/03/15 12:48:34;;;;;;;1.20;0.37;;;7.30;99.90;;;;;;5024193;28;20182;-82
2022/03/15 12:51:02;;;;;;;0.60;0.50;;;7.30;99.90;;;;;;5023754;28;20214;-82
2022/03/15 12:53:42;;;;;;;0.47;0.33;;;7.30;99.90;;;;;;5022757;28;20641;-81
2022/03/15 12:56:11;;;;;;;3.23;0.33;;;7.20;99.90;;;;;;5024967;28;20182;-82
2022/03/15 12:58:39;;;;;;;0.10;0.10;;;7.30;99.90;;;;;;5024341;28;20665;-81
2022/03/15 13:01:11;;;;;;;0.40;0.40;;;7.30;99.90;;;;;;5025271;28;20943;-82